createdAt,value
2023-03-27T00:00:54.333Z,98661.56
2023-03-27T00:03:57.971Z,98647.38
2023-03-27T00:07:00.631Z,98641.34
2023-03-27T00:10:03.709Z,98645.53
2023-03-27T00:13:08.631Z,98644.47
2023-03-27T00:16:12.017Z,98639.81
2023-03-27T00:19:14.889Z,98638.25
2023-03-27T00:22:18.322Z,98645.50
2023-03-27T00:25:26.953Z,98635.88
2023-03-27T00:28:30.448Z,98637.13
2023-03-27T00:31:33.675Z,98625.03
2023-03-27T00:34:37.779Z,98616.34
2023-03-27T00:37:42.123Z,98623.41
2023-03-27T00:40:47.227Z,98615.84
2023-03-27T00:43:54.702Z,98607.53
2023-03-27T00:46:58.223Z,98606.22
2023-03-27T00:50:06.897Z,98598.75
2023-03-27T00:53:16.235Z,98594.69
2023-03-27T00:56:19.261Z,98595.59
2023-03-27T00:59:27.656Z,98587.56
2023-03-27T01:02:30.557Z,98578.00
2023-03-27T01:05:35.192Z,98580.31
2023-03-27T01:08:38.452Z,98573.25
2023-03-27T01:12:09.506Z,98563.38
2023-03-27T01:15:25.763Z,98554.13
2023-03-27T01:19:00.622Z,98559.50
2023-03-27T01:22:37.692Z,98552.53
2023-03-27T01:26:09.000Z,98545.06
2023-03-27T01:29:47.285Z,98541.31
2023-03-27T01:33:02.951Z,98537.37
2023-03-27T01:36:27.683Z,98534.94
2023-03-27T01:39:56.729Z,98533.84
2023-03-27T01:42:59.514Z,98534.84
2023-03-27T01:46:19.858Z,98526.16
2023-03-27T01:49:31.041Z,98524.09
2023-03-27T01:52:38.627Z,98526.88
2023-03-27T01:55:47.495Z,98523.37
2023-03-27T01:58:51.644Z,98529.81
2023-03-27T02:02:15.751Z,98531.03
2023-03-27T02:05:29.536Z,98523.16
2023-03-27T02:08:40.112Z,98513.94
2023-03-27T02:11:57.028Z,98513.59
2023-03-27T02:15:24.045Z,98507.22
2023-03-27T02:18:37.222Z,98493.03
2023-03-27T02:21:40.127Z,98498.09
2023-03-27T02:24:43.758Z,98510.38
2023-03-27T02:27:50.359Z,98491.91
2023-03-27T02:31:05.825Z,98491.47
2023-03-27T02:35:03.726Z,98478.06
2023-03-27T02:38:26.408Z,98472.94
2023-03-27T02:41:57.618Z,98468.59
2023-03-27T02:45:24.516Z,98467.16
2023-03-27T02:48:34.425Z,98454.34
2023-03-27T02:51:43.830Z,98466.31
2023-03-27T02:54:53.389Z,98467.13
2023-03-27T02:58:03.002Z,98472.31
2023-03-27T03:01:11.108Z,98467.28
2023-03-27T03:04:20.438Z,98462.41
2023-03-27T03:07:27.609Z,98470.72
2023-03-27T03:10:31.584Z,98467.03
2023-03-27T03:13:34.437Z,98478.53
2023-03-27T03:16:37.571Z,98463.97
2023-03-27T03:19:41.045Z,98462.16
2023-03-27T03:22:44.430Z,98458.66
2023-03-27T03:25:52.895Z,98444.72
2023-03-27T03:29:00.396Z,98449.38
2023-03-27T03:32:06.552Z,98451.81
2023-03-27T03:35:10.467Z,98449.47
2023-03-27T03:38:13.475Z,98461.00
2023-03-27T03:41:17.075Z,98456.72
2023-03-27T03:44:20.525Z,98453.53
2023-03-27T03:47:23.849Z,98458.34
2023-03-27T03:50:26.806Z,98454.44
2023-03-27T03:53:30.097Z,98452.03
2023-03-27T03:56:34.712Z,98444.78
2023-03-27T03:59:38.047Z,98438.78
2023-03-27T04:02:43.886Z,98444.72
2023-03-27T04:05:48.235Z,98441.13
2023-03-27T04:08:51.866Z,98436.81
2023-03-27T04:11:57.216Z,98433.59
2023-03-27T04:15:00.655Z,98435.59
2023-03-27T04:18:05.315Z,98433.66
2023-03-27T04:21:15.019Z,98433.69
2023-03-27T04:24:18.551Z,98443.00
2023-03-27T04:27:21.522Z,98440.47
2023-03-27T04:30:26.228Z,98431.00
2023-03-27T04:33:39.624Z,98442.50
2023-03-27T04:36:44.856Z,98439.28
2023-03-27T04:39:47.814Z,98446.03
2023-03-27T04:42:51.212Z,98441.25
2023-03-27T04:45:55.002Z,98453.16
2023-03-27T04:48:58.496Z,98439.69
2023-03-27T04:52:01.946Z,98439.34
2023-03-27T04:55:07.030Z,98445.78
2023-03-27T04:58:10.184Z,98440.66
2023-03-27T05:01:13.848Z,98444.91
2023-03-27T05:04:18.607Z,98440.94
2023-03-27T05:07:23.397Z,98442.62
2023-03-27T05:10:27.054Z,98448.56
2023-03-27T05:13:30.901Z,98434.47
2023-03-27T05:16:36.122Z,98428.19
2023-03-27T05:19:40.225Z,98426.25
2023-03-27T05:22:43.782Z,98430.31
2023-03-27T05:26:00.479Z,98429.59
2023-03-27T05:29:09.257Z,98436.75
2023-03-27T05:32:13.028Z,98429.25
2023-03-27T05:35:18.303Z,98426.13
2023-03-27T05:38:23.058Z,98432.88
2023-03-27T05:41:26.549Z,98432.91
2023-03-27T05:44:29.924Z,98434.91
2023-03-27T05:47:32.886Z,98431.37
2023-03-27T05:50:36.732Z,98422.72
2023-03-27T05:53:40.143Z,98434.19
2023-03-27T05:56:45.529Z,98437.31
2023-03-27T05:59:49.118Z,98433.38
2023-03-27T06:02:57.711Z,98437.72
2023-03-27T06:06:10.956Z,98433.78
2023-03-27T06:09:14.131Z,98448.41
2023-03-27T06:12:19.032Z,98442.84
2023-03-27T06:15:21.882Z,98448.00
2023-03-27T06:18:26.092Z,98448.78
2023-03-27T06:21:29.631Z,98447.19
2023-03-27T06:24:33.633Z,98442.50
2023-03-27T06:27:38.192Z,98443.66
2023-03-27T06:30:42.444Z,98445.25
2023-03-27T06:33:50.232Z,98449.56
2023-03-27T06:36:53.856Z,98441.69
2023-03-27T06:39:57.840Z,98445.25
2023-03-27T06:43:07.118Z,98446.03
2023-03-27T06:46:10.943Z,98441.34
2023-03-27T06:49:21.531Z,98434.62
2023-03-27T06:52:24.752Z,98429.91
2023-03-27T06:55:34.550Z,98438.59
2023-03-27T06:58:37.642Z,98444.88
2023-03-27T07:01:44.184Z,98455.94
2023-03-27T07:05:01.597Z,98454.72
2023-03-27T07:08:22.562Z,98453.97
2023-03-27T07:11:28.956Z,98452.38
2023-03-27T07:14:33.943Z,98455.16
2023-03-27T07:17:48.189Z,98446.87
2023-03-27T07:20:53.404Z,98445.28
2023-03-27T07:23:56.663Z,98459.09
2023-03-27T07:27:02.874Z,98455.16
2023-03-27T07:30:08.264Z,98459.09
2023-03-27T07:33:13.100Z,98452.41
2023-03-27T07:36:16.496Z,98471.69
2023-03-27T07:39:19.715Z,98465.38
2023-03-27T07:42:22.807Z,98474.84
2023-03-27T07:45:26.835Z,98473.66
2023-03-27T07:48:31.601Z,98477.97
2023-03-27T07:51:35.558Z,98465.75
2023-03-27T07:54:38.613Z,98474.81
2023-03-27T07:57:59.856Z,98481.12
2023-03-27T08:01:04.973Z,98477.59
2023-03-27T08:04:08.836Z,98483.09
2023-03-27T08:07:12.766Z,98481.91
2023-03-27T08:10:16.347Z,98497.25
2023-03-27T08:13:20.968Z,98481.50
2023-03-27T08:16:29.322Z,98479.53
2023-03-27T08:19:33.692Z,98492.53
2023-03-27T08:22:38.476Z,98499.25
2023-03-27T08:25:50.705Z,98487.41
2023-03-27T08:28:56.325Z,98502.00
2023-03-27T08:31:59.593Z,98511.06
2023-03-27T08:35:04.209Z,98509.09
2023-03-27T08:38:11.295Z,98518.94
2023-03-27T08:41:28.666Z,98505.53
2023-03-27T08:44:35.651Z,98511.84
2023-03-27T08:47:47.014Z,98511.44
2023-03-27T08:51:09.610Z,98514.97
2023-03-27T08:54:26.069Z,98517.31
2023-03-27T08:57:31.856Z,98513.34
2023-03-27T09:00:40.851Z,98519.25
2023-03-27T09:03:47.660Z,98514.47
2023-03-27T09:07:11.867Z,98511.66
2023-03-27T09:10:25.750Z,98519.16
2023-03-27T09:13:46.649Z,98516.38
2023-03-27T09:16:52.201Z,98514.78
2023-03-27T09:20:07.484Z,98531.34
2023-03-27T09:23:19.129Z,98536.09
2023-03-27T09:26:34.911Z,98528.22
2023-03-27T09:29:41.851Z,98544.00
2023-03-27T09:32:52.064Z,98548.34
2023-03-27T09:35:58.128Z,98559.41
2023-03-27T09:39:08.249Z,98554.28
2023-03-27T09:42:26.598Z,98565.28
2023-03-27T09:45:31.162Z,98561.34
2023-03-27T09:48:47.312Z,98551.81
2023-03-27T09:51:52.628Z,98551.03
2023-03-27T09:54:56.418Z,98569.16
2023-03-27T09:58:35.655Z,98575.06
2023-03-27T10:01:50.778Z,98567.47
2023-03-27T10:04:59.817Z,98559.13
2023-03-27T10:08:27.273Z,98572.16
2023-03-27T10:11:34.024Z,98578.81
2023-03-27T10:14:50.537Z,98576.06
2023-03-27T10:17:56.522Z,98583.94
2023-03-27T10:21:06.977Z,98597.34
2023-03-27T10:24:27.988Z,98595.75
2023-03-27T10:27:36.112Z,98601.34
2023-03-27T10:30:42.555Z,98603.72
2023-03-27T10:33:46.466Z,98595.03
2023-03-27T10:36:50.948Z,98603.34
2023-03-27T10:40:00.256Z,98617.97
2023-03-27T10:43:14.144Z,98622.28
2023-03-27T10:46:24.096Z,98619.91
2023-03-27T10:49:44.341Z,98623.03
2023-03-27T10:53:13.605Z,98629.72
2023-03-27T10:56:31.384Z,98631.66
2023-03-27T10:59:43.242Z,98635.59
2023-03-27T11:03:02.548Z,98649.38
2023-03-27T11:06:12.290Z,98656.47
2023-03-27T11:09:24.603Z,98665.13
2023-03-27T11:12:32.879Z,98667.56
2023-03-27T11:15:42.519Z,98673.09
2023-03-27T11:19:02.813Z,98683.37
2023-03-27T11:22:17.901Z,98678.62
2023-03-27T11:25:38.232Z,98678.22
2023-03-27T11:29:10.525Z,98695.25
2023-03-27T11:32:28.539Z,98687.75
2023-03-27T11:35:38.537Z,98690.13
2023-03-27T11:38:48.608Z,98705.59
2023-03-27T11:42:02.079Z,98704.78
2023-03-27T11:45:09.461Z,98716.25
2023-03-27T11:48:24.725Z,98713.87
2023-03-27T11:51:42.048Z,98734.06
2023-03-27T11:55:00.818Z,98717.47
2023-03-27T11:58:42.230Z,98742.75
2023-03-27T12:01:51.856Z,98744.37
2023-03-27T12:05:21.197Z,98763.00
2023-03-27T12:08:38.200Z,98770.19
2023-03-27T12:11:47.695Z,98783.22
2023-03-27T12:14:53.663Z,98791.56
2023-03-27T12:18:09.305Z,98780.13
2023-03-27T12:21:31.296Z,98821.56
2023-03-27T12:24:57.045Z,98783.22
2023-03-27T12:28:30.015Z,98843.13
2023-03-27T12:32:05.641Z,98858.44
2023-03-27T12:35:21.842Z,98857.97
2023-03-27T12:38:37.600Z,98887.13
2023-03-27T12:41:45.610Z,98898.03
2023-03-27T12:45:16.318Z,98908.22
2023-03-27T12:48:20.532Z,98920.66
2023-03-27T12:51:44.006Z,98943.97
2023-03-27T12:55:12.207Z,98940.81
2023-03-27T12:58:35.286Z,98958.53
2023-03-27T13:05:08.647Z,98975.06
2023-03-27T13:08:34.494Z,98980.56
2023-03-27T13:12:02.956Z,98980.88
2023-03-27T13:15:31.813Z,99010.50
2023-03-27T13:18:38.179Z,99040.41
2023-03-27T13:22:13.402Z,99022.88
2023-03-27T13:25:35.611Z,99045.19
2023-03-27T13:28:40.567Z,99071.19
2023-03-27T13:31:45.494Z,99066.69
2023-03-27T13:35:24.008Z,99068.06
2023-03-27T13:38:46.308Z,99082.19
2023-03-27T13:42:13.185Z,99104.56
2023-03-27T13:45:25.741Z,99108.28
2023-03-27T13:49:13.067Z,99131.72
2023-03-27T13:52:27.895Z,99142.81
2023-03-27T13:55:49.304Z,99164.53
2023-03-27T13:58:54.344Z,99151.28
2023-03-27T14:02:15.144Z,99185.44
2023-03-27T14:05:57.119Z,99184.78
2023-03-27T14:09:16.259Z,99202.31
2023-03-27T14:12:29.455Z,99207.84
2023-03-27T14:15:43.101Z,99194.59
2023-03-27T14:19:08.441Z,99236.78
2023-03-27T14:22:29.587Z,99233.31
2023-03-27T14:25:40.286Z,99268.00
2023-03-27T14:29:04.412Z,99270.75
2023-03-27T14:32:15.878Z,99269.34
2023-03-27T14:35:45.306Z,99305.44
2023-03-27T14:38:48.887Z,99325.88
2023-03-27T14:42:01.893Z,99330.87
2023-03-27T14:45:09.272Z,99355.94
2023-03-27T14:48:31.245Z,99355.66
2023-03-27T14:51:38.040Z,99364.44
2023-03-27T14:54:54.409Z,99374.97
2023-03-27T14:58:11.129Z,99389.47
2023-03-27T15:01:17.464Z,99391.37
2023-03-27T15:04:26.831Z,99401.19
2023-03-27T15:07:35.391Z,99404.41
2023-03-27T15:10:40.230Z,99433.06
2023-03-27T15:13:48.002Z,99428.16
2023-03-27T15:17:00.476Z,99446.56
2023-03-27T15:20:14.799Z,99457.19
2023-03-27T15:23:33.851Z,99456.03
2023-03-27T15:26:37.611Z,99473.94
2023-03-27T15:29:46.558Z,99470.19
2023-03-27T15:32:52.657Z,99484.00
2023-03-27T15:35:57.189Z,99502.47
2023-03-27T15:39:01.795Z,99496.56
2023-03-27T15:42:15.492Z,99518.97
2023-03-27T15:45:38.507Z,99501.59
2023-03-27T15:48:46.110Z,99502.06
2023-03-27T15:51:49.512Z,99524.91
2023-03-27T15:54:56.518Z,99533.59
2023-03-27T15:58:02.161Z,99537.13
2023-03-27T16:01:23.956Z,99549.94
2023-03-27T16:04:48.594Z,99565.34
2023-03-27T16:07:52.428Z,99571.97
2023-03-27T16:10:56.461Z,99585.00
2023-03-27T16:13:59.873Z,99598.59
2023-03-27T16:17:11.894Z,99594.12
2023-03-27T16:20:23.999Z,99602.22
2023-03-27T16:23:28.450Z,99605.31
2023-03-27T16:26:32.859Z,99590.44
2023-03-27T16:29:37.132Z,99604.84
2023-03-27T16:32:41.886Z,99606.09
2023-03-27T16:35:46.295Z,99615.72
2023-03-27T16:38:49.566Z,99630.34
2023-03-27T16:41:53.479Z,99632.75
2023-03-27T16:44:56.566Z,99631.16
2023-03-27T16:48:01.524Z,99642.22
2023-03-27T16:51:05.001Z,99658.91
2023-03-27T16:54:10.389Z,99671.94
2023-03-27T16:57:14.970Z,99681.84
2023-03-27T17:00:20.443Z,99684.69
2023-03-27T17:03:24.008Z,99697.34
2023-03-27T17:06:28.777Z,99701.78
2023-03-27T17:09:33.394Z,99709.41
2023-03-27T17:12:37.020Z,99712.81
2023-03-27T17:15:40.961Z,99738.50
2023-03-27T17:18:44.778Z,99741.09
2023-03-27T17:21:48.082Z,99745.66
2023-03-27T17:24:57.254Z,99757.13
2023-03-27T17:28:00.808Z,99762.16
2023-03-27T17:31:05.800Z,99768.41
2023-03-27T17:34:09.898Z,99781.00
2023-03-27T17:37:13.349Z,99793.00
2023-03-27T17:40:16.642Z,99788.34
2023-03-27T17:43:21.266Z,99797.00
2023-03-27T17:46:26.291Z,99799.28
2023-03-27T17:49:32.051Z,99807.38
2023-03-27T17:52:38.209Z,99807.72
2023-03-27T17:55:43.577Z,99816.25
2023-03-27T17:58:49.311Z,99827.75
2023-03-27T18:01:53.138Z,99826.28
2023-03-27T18:04:56.959Z,99833.56
2023-03-27T18:08:00.741Z,99833.44
2023-03-27T18:11:10.045Z,99848.72
2023-03-27T18:14:14.808Z,99828.31
2023-03-27T18:17:21.656Z,99842.97
2023-03-27T18:20:25.570Z,99851.50
2023-03-27T18:23:30.000Z,99851.06
2023-03-27T18:26:33.665Z,99863.59
2023-03-27T18:29:37.850Z,99866.66
2023-03-27T18:32:44.428Z,99872.59
2023-03-27T18:35:56.047Z,99862.00
2023-03-27T18:38:59.593Z,99874.88
2023-03-27T18:42:04.379Z,99873.28
2023-03-27T18:45:09.701Z,99879.41
2023-03-27T18:48:16.933Z,99882.00
2023-03-27T18:51:24.694Z,99880.25
2023-03-27T18:54:28.959Z,99884.31
2023-03-27T18:57:35.139Z,99887.53
2023-03-27T19:00:39.696Z,99896.38
2023-03-27T19:03:46.004Z,99895.72
2023-03-27T19:06:51.434Z,99885.78
2023-03-27T19:10:00.143Z,99884.34
2023-03-27T19:13:11.706Z,99886.28
2023-03-27T19:16:17.208Z,99897.22
2023-03-27T19:19:23.584Z,99895.63
2023-03-27T19:22:34.017Z,99892.06
2023-03-27T19:25:40.227Z,99891.16
2023-03-27T19:28:48.342Z,99883.56
2023-03-27T19:31:55.474Z,99878.75
2023-03-27T19:35:04.059Z,99870.87
2023-03-27T19:38:08.848Z,99874.09
2023-03-27T19:41:13.240Z,99869.44
2023-03-27T19:44:20.598Z,99867.00
2023-03-27T19:47:27.884Z,99860.88
2023-03-27T19:50:33.970Z,99871.03
2023-03-27T19:53:39.372Z,99869.06
2023-03-27T19:56:45.428Z,99865.41
2023-03-27T19:59:49.055Z,99875.06
2023-03-27T20:02:54.480Z,99868.78
2023-03-27T20:06:07.039Z,99880.22
2023-03-27T20:09:13.230Z,99876.34
2023-03-27T20:12:20.482Z,99878.91
2023-03-27T20:15:25.394Z,99885.19
2023-03-27T20:18:33.450Z,99890.97
2023-03-27T20:21:40.313Z,99891.47
2023-03-27T20:24:46.566Z,99887.59
2023-03-27T20:27:49.736Z,99896.44
2023-03-27T20:30:53.704Z,99903.88
2023-03-27T20:33:57.736Z,99915.59
2023-03-27T20:37:03.960Z,99901.91
2023-03-27T20:40:11.916Z,99910.94
2023-03-27T20:43:15.734Z,99910.78
2023-03-27T20:46:19.151Z,99928.00
2023-03-27T20:52:34.475Z,99931.09
2023-03-27T20:55:49.610Z,99934.31
2023-03-27T20:59:00.154Z,99929.84
2023-03-27T21:02:04.393Z,99925.00
2023-03-27T21:05:07.708Z,99932.06
2023-03-27T21:08:12.907Z,99926.09
2023-03-27T21:11:15.814Z,99931.91
2023-03-27T21:14:19.021Z,99932.06
2023-03-27T21:17:21.957Z,99936.75
2023-03-27T21:20:25.060Z,99938.34
2023-03-27T21:23:27.968Z,99947.53
2023-03-27T21:26:31.170Z,99947.84
2023-03-27T21:29:34.261Z,99952.66
2023-03-27T21:32:37.570Z,99967.47
2023-03-27T21:35:44.232Z,99960.88
2023-03-27T21:38:47.444Z,99970.37
2023-03-27T21:41:50.207Z,99978.13
2023-03-27T21:44:56.514Z,99967.16
2023-03-27T21:48:00.349Z,99967.81
2023-03-27T21:51:05.943Z,99975.38
2023-03-27T21:54:08.813Z,99977.66
2023-03-27T21:57:11.896Z,99984.88
2023-03-27T22:00:15.993Z,99986.34
2023-03-27T22:03:19.538Z,99993.25
2023-03-27T22:06:22.450Z,99994.69
2023-03-27T22:09:25.822Z,100002.09
2023-03-27T22:12:28.740Z,99996.97
2023-03-27T22:15:32.035Z,99995.84
2023-03-27T22:18:34.758Z,100004.81
2023-03-27T22:21:38.095Z,100001.94
2023-03-27T22:24:41.186Z,100002.28
2023-03-27T22:27:44.532Z,100011.75
2023-03-27T22:30:47.339Z,100016.44
2023-03-27T22:33:51.106Z,100026.41
2023-03-27T22:36:54.046Z,100031.41
2023-03-27T22:39:57.005Z,100036.03
2023-03-27T22:42:59.770Z,100037.50
2023-03-27T22:46:14.223Z,100038.16
2023-03-27T22:49:17.266Z,100043.63
2023-03-27T22:52:20.900Z,100042.34
2023-03-27T22:55:23.870Z,100060.97
2023-03-27T22:58:28.007Z,100054.88
2023-03-27T23:01:31.141Z,100062.41
2023-03-27T23:04:34.451Z,100070.44
2023-03-27T23:07:37.456Z,100076.56
2023-03-27T23:10:40.644Z,100076.56
2023-03-27T23:13:43.555Z,100075.56
2023-03-27T23:16:46.731Z,100073.47
2023-03-27T23:19:49.717Z,100079.09
2023-03-27T23:22:53.229Z,100077.00
2023-03-27T23:25:58.027Z,100089.22
2023-03-27T23:29:01.381Z,100089.06
2023-03-27T23:32:04.195Z,100094.53
2023-03-27T23:35:10.926Z,100091.78
2023-03-27T23:38:13.744Z,100103.19
2023-03-27T23:41:17.408Z,100099.16
2023-03-27T23:44:20.218Z,100101.25
2023-03-27T23:47:23.701Z,100112.50
2023-03-27T23:50:26.791Z,100118.28
2023-03-27T23:53:30.768Z,100122.44
2023-03-27T23:56:33.753Z,100131.47
2023-03-27T23:59:38.011Z,100135.94
